CheckWX is a tool to help pilots better visualize weather data.  It is not intended as a substitute for an official pre-flight weather briefing.

00:40:30 UTC

KPOB TAF
Pope AAF Airport
Fayetteville, North Carolina, USA
TAF AMD KPOB 260005Z 2600/2623 34006KT 9000 -SHRA SCT015 BKN035 QNH2984INS TEMPO 2600/2603 8000 -TSRA BKN010CB BECMG 2603/2604 01006KT 9000 -SHRA BKN015 OVC030 QNH2992INS BECMG 2605/2606 03009KT 9000 -SHRA OVC005 QNH2992INS BECMG 2610/2611 03012G20KT 9999 NSW OVC010 QNH3005INS BECMG 2614/2615 03015G25KT 9999 FEW050 QNH3013INS TX18/2600Z TN09/2611Z

Mar-26@
00:00 UTC

Mar-26 @ 00:00 UTC

Mar-26@
03:00 UTC

Mar-26 @ 03:00 UTC

TAF AMD KPOB 260005Z 2600/2623 34006KT 9000 -SHRA SCT015 BKN035 QNH2984INS
Wind
  • 340° at 6 KTS
Conditions
Light Rain
Cloud Levels
  • Scattered at 1,500' AGL
  • Broken at 3,500' AGL

Mar-26@
00:00 UTC

Mar-26 @ 00:00 UTC

Mar-26@
03:00 UTC

Mar-26 @ 03:00 UTC

TEMPO 2600/2603 8000 -TSRA BKN010CB

Temporary

Temporary Changes expected for less than half the time period

Conditions
Light Thunderstorm, Light Rain
Cloud Levels
  • Broken at 1,000' AGL

Mar-26@
03:00 UTC

Mar-26 @ 03:00 UTC

Mar-26@
05:00 UTC

Mar-26 @ 05:00 UTC

BECMG 2603/2604 01006KT 9000 -SHRA BKN015 OVC030 QNH2992INS

Becoming

Becoming Conditions expected by Tue, Mar 26, 2019 @ 04:00 UTC

Wind
  • 010° at 6 KTS
Conditions
Light Rain
Cloud Levels
  • Broken at 1,500' AGL
  • Overcast at 3,000' AGL

Mar-26@
05:00 UTC

Mar-26 @ 05:00 UTC

Mar-26@
10:00 UTC

Mar-26 @ 10:00 UTC

BECMG 2605/2606 03009KT 9000 -SHRA OVC005 QNH2992INS

Becoming

Becoming Conditions expected by Tue, Mar 26, 2019 @ 06:00 UTC

Wind
  • 030° at 9 KTS
Conditions
Light Rain
Cloud Levels
  • Overcast at 500' AGL

Mar-26@
10:00 UTC

Mar-26 @ 10:00 UTC

Mar-26@
14:00 UTC

Mar-26 @ 14:00 UTC

BECMG 2610/2611 03012G20KT 9999 NSW OVC010 QNH3005INS

Becoming

Becoming Conditions expected by Tue, Mar 26, 2019 @ 11:00 UTC

Wind
  • 030° at 12 KTS
  • {Gusting to 20 KTS
Conditions
No significant weather
Cloud Levels
  • Overcast at 1,000' AGL

Mar-26@
14:00 UTC

Mar-26 @ 14:00 UTC

Mar-26@
23:00 UTC

Mar-26 @ 23:00 UTC

BECMG 2614/2615 03015G25KT 9999 FEW050 QNH3013INS TX18/2600Z TN09/2611Z

Becoming

Becoming Conditions expected by Tue, Mar 26, 2019 @ 15:00 UTC

Wind
  • 030° at 15 KTS
  • {Gusting to 25 KTS
Conditions
No significant weather
Cloud Levels
  • Few at 5,000' AGL